CYBK

Baker Lake Airport

Baker Lake, Canada
METAR CYBK 220700Z 33016G22KT 15SM -SN SCT025 BKN050 BKN100 M02/M04 A2997 RMK SC3SC2AC1 SLP151
Observed Flight Rules
Sep-22 @ 07:00 UTC (20 minutes ago) Visual Flight Rules
Wind Visibility Clouds Conditions
330° at 16 knots
 Gusting to 22 knots
15 miles
Temperatures Readings
Current -2°C / 28°F
Dewpoint -4°C / 25°F
Humidity 86%
Altimeter 29.97" Hg
Pressure 1015.1 hPa
Elevation 18
METAR CYBK 220700Z 33016G22KT 15SM -SN SCT025 BKN050 BKN100 M02/M04 A2997 RMK SC3SC2AC1 SLP151
Observed Flight Rules
Sep-22 @ 07:00 UTC
(20 minutes ago)
VFR
Wind Visibility
330° at 16 knots
 Gusting to 22 knots
15 miles
Clouds
Conditions
Temperature Dewpoint
-2°C / 28°F -4°C / 25°F
Humidity Altimeter Pressure
86% 29.97" Hg 1015.1 hPa